sensor_id;sensor_type;location;lat;lon;timestamp;P1;durP1;ratioP1;P2;durP2;ratioP2
8642;SDS011;4359;49.358;11.256;2022-07-29T00:02:07;4.97;;;2.30;;
8642;SDS011;4359;49.358;11.256;2022-07-29T00:04:34;5.95;;;1.88;;
8642;SDS011;4359;49.358;11.256;2022-07-29T00:07:01;9.30;;;1.80;;
8642;SDS011;4359;49.358;11.256;2022-07-29T00:09:27;6.45;;;2.00;;
8642;SDS011;4359;49.358;11.256;2022-07-29T00:11:53;6.18;;;1.80;;
8642;SDS011;4359;49.358;11.256;2022-07-29T00:14:21;11.00;;;2.20;;
8642;SDS011;4359;49.358;11.256;2022-07-29T00:16:47;6.32;;;1.73;;
8642;SDS011;4359;49.358;11.256;2022-07-29T00:19:12;4.45;;;1.80;;
8642;SDS011;4359;49.358;11.256;2022-07-29T00:21:38;5.07;;;2.38;;
8642;SDS011;4359;49.358;11.256;2022-07-29T00:24:04;5.93;;;1.90;;
8642;SDS011;4359;49.358;11.256;2022-07-29T00:26:30;4.18;;;1.60;;
8642;SDS011;4359;49.358;11.256;2022-07-29T00:29:00;6.75;;;1.95;;
8642;SDS011;4359;49.358;11.256;2022-07-29T00:31:27;5.45;;;2.00;;
8642;SDS011;4359;49.358;11.256;2022-07-29T00:33:53;9.13;;;1.70;;
8642;SDS011;4359;49.358;11.256;2022-07-29T00:36:19;5.93;;;1.80;;
8642;SDS011;4359;49.358;11.256;2022-07-29T00:38:46;4.88;;;1.95;;
8642;SDS011;4359;49.358;11.256;2022-07-29T00:41:12;4.25;;;2.00;;
8642;SDS011;4359;49.358;11.256;2022-07-29T00:43:38;5.32;;;1.83;;
8642;SDS011;4359;49.358;11.256;2022-07-29T00:46:04;5.80;;;1.63;;
8642;SDS011;4359;49.358;11.256;2022-07-29T00:48:30;4.75;;;1.80;;
8642;SDS011;4359;49.358;11.256;2022-07-29T00:50:56;3.97;;;1.70;;
8642;SDS011;4359;49.358;11.256;2022-07-29T00:53:23;6.00;;;1.83;;
8642;SDS011;4359;49.358;11.256;2022-07-29T00:55:50;6.68;;;1.67;;
8642;SDS011;4359;49.358;11.256;2022-07-29T00:58:15;7.63;;;2.17;;
8642;SDS011;4359;49.358;11.256;2022-07-29T01:00:41;4.63;;;1.90;;
8642;SDS011;4359;49.358;11.256;2022-07-29T01:03:07;5.97;;;2.10;;
8642;SDS011;4359;49.358;11.256;2022-07-29T01:05:33;9.73;;;1.90;;
8642;SDS011;4359;49.358;11.256;2022-07-29T01:08:00;3.65;;;1.60;;
8642;SDS011;4359;49.358;11.256;2022-07-29T01:10:27;4.85;;;1.73;;
8642;SDS011;4359;49.358;11.256;2022-07-29T01:12:54;6.30;;;2.28;;
8642;SDS011;4359;49.358;11.256;2022-07-29T01:15:23;4.38;;;1.83;;
8642;SDS011;4359;49.358;11.256;2022-07-29T01:18:11;5.10;;;1.80;;
8642;SDS011;4359;49.358;11.256;2022-07-29T01:26:52;10.83;;;2.20;;
8642;SDS011;4359;49.358;11.256;2022-07-29T01:29:35;4.03;;;1.77;;
8642;SDS011;4359;49.358;11.256;2022-07-29T01:32:26;6.95;;;2.38;;
8642;SDS011;4359;49.358;11.256;2022-07-29T01:37:51;6.97;;;2.05;;
8642;SDS011;4359;49.358;11.256;2022-07-29T01:40:46;4.72;;;1.70;;
8642;SDS011;4359;49.358;11.256;2022-07-29T01:43:17;5.47;;;2.00;;
8642;SDS011;4359;49.358;11.256;2022-07-29T01:45:51;4.22;;;1.70;;
8642;SDS011;4359;49.358;11.256;2022-07-29T01:48:23;5.20;;;1.80;;
8642;SDS011;4359;49.358;11.256;2022-07-29T01:50:58;9.48;;;2.20;;
8642;SDS011;4359;49.358;11.256;2022-07-29T01:53:31;5.80;;;1.92;;
8642;SDS011;4359;49.358;11.256;2022-07-29T01:56:00;4.75;;;1.83;;
8642;SDS011;4359;49.358;11.256;2022-07-29T01:58:28;6.28;;;1.88;;
8642;SDS011;4359;49.358;11.256;2022-07-29T02:00:55;3.60;;;1.80;;
8642;SDS011;4359;49.358;11.256;2022-07-29T02:03:23;4.15;;;1.90;;
8642;SDS011;4359;49.358;11.256;2022-07-29T02:05:51;6.68;;;1.75;;
8642;SDS011;4359;49.358;11.256;2022-07-29T02:08:18;7.07;;;2.25;;
8642;SDS011;4359;49.358;11.256;2022-07-29T02:10:47;6.10;;;2.35;;
8642;SDS011;4359;49.358;11.256;2022-07-29T02:13:14;7.60;;;1.70;;
8642;SDS011;4359;49.358;11.256;2022-07-29T02:15:42;4.47;;;1.98;;
8642;SDS011;4359;49.358;11.256;2022-07-29T02:18:11;4.88;;;2.00;;
8642;SDS011;4359;49.358;11.256;2022-07-29T02:20:41;10.20;;;1.85;;
8642;SDS011;4359;49.358;11.256;2022-07-29T02:23:14;3.53;;;2.20;;
8642;SDS011;4359;49.358;11.256;2022-07-29T02:25:44;3.25;;;1.70;;
8642;SDS011;4359;49.358;11.256;2022-07-29T02:28:14;6.22;;;2.00;;
8642;SDS011;4359;49.358;11.256;2022-07-29T02:30:41;5.57;;;2.10;;
8642;SDS011;4359;49.358;11.256;2022-07-29T02:33:08;9.88;;;2.00;;
8642;SDS011;4359;49.358;11.256;2022-07-29T02:35:37;8.00;;;2.20;;
8642;SDS011;4359;49.358;11.256;2022-07-29T02:38:05;5.80;;;2.35;;
8642;SDS011;4359;49.358;11.256;2022-07-29T02:41:00;4.80;;;1.88;;
8642;SDS011;4359;49.358;11.256;2022-07-29T02:43:29;7.82;;;1.95;;
8642;SDS011;4359;49.358;11.256;2022-07-29T02:45:56;5.45;;;2.53;;
8642;SDS011;4359;49.358;11.256;2022-07-29T02:48:27;9.50;;;2.88;;
8642;SDS011;4359;49.358;11.256;2022-07-29T02:51:13;8.98;;;2.95;;
8642;SDS011;4359;49.358;11.256;2022-07-29T02:53:44;5.75;;;2.50;;
8642;SDS011;4359;49.358;11.256;2022-07-29T02:56:16;6.93;;;2.33;;
8642;SDS011;4359;49.358;11.256;2022-07-29T02:58:55;4.18;;;2.25;;
8642;SDS011;4359;49.358;11.256;2022-07-29T03:01:23;6.00;;;2.20;;
8642;SDS011;4359;49.358;11.256;2022-07-29T03:03:54;4.32;;;2.17;;
8642;SDS011;4359;49.358;11.256;2022-07-29T03:06:21;4.47;;;2.10;;
8642;SDS011;4359;49.358;11.256;2022-07-29T03:08:50;6.88;;;2.28;;
8642;SDS011;4359;49.358;11.256;2022-07-29T03:11:16;6.18;;;1.98;;
8642;SDS011;4359;49.358;11.256;2022-07-29T03:13:43;6.03;;;2.20;;
8642;SDS011;4359;49.358;11.256;2022-07-29T03:16:09;7.97;;;2.63;;
8642;SDS011;4359;49.358;11.256;2022-07-29T03:18:36;6.45;;;2.40;;
8642;SDS011;4359;49.358;11.256;2022-07-29T03:21:02;5.70;;;2.00;;
8642;SDS011;4359;49.358;11.256;2022-07-29T03:23:28;15.55;;;3.58;;
8642;SDS011;4359;49.358;11.256;2022-07-29T03:25:54;7.63;;;2.50;;
8642;SDS011;4359;49.358;11.256;2022-07-29T03:28:20;4.65;;;2.10;;
8642;SDS011;4359;49.358;11.256;2022-07-29T03:30:47;5.95;;;2.78;;
8642;SDS011;4359;49.358;11.256;2022-07-29T03:33:13;4.65;;;2.40;;
8642;SDS011;4359;49.358;11.256;2022-07-29T03:35:39;5.63;;;1.98;;
8642;SDS011;4359;49.358;11.256;2022-07-29T03:38:04;6.40;;;2.17;;
8642;SDS011;4359;49.358;11.256;2022-07-29T03:40:34;5.43;;;2.05;;
8642;SDS011;4359;49.358;11.256;2022-07-29T03:43:13;10.40;;;2.78;;
8642;SDS011;4359;49.358;11.256;2022-07-29T03:45:42;10.43;;;2.22;;
8642;SDS011;4359;49.358;11.256;2022-07-29T03:48:15;5.57;;;2.00;;
8642;SDS011;4359;49.358;11.256;2022-07-29T03:50:43;7.03;;;2.08;;
8642;SDS011;4359;49.358;11.256;2022-07-29T03:53:09;5.40;;;2.13;;
8642;SDS011;4359;49.358;11.256;2022-07-29T03:55:40;6.32;;;2.33;;
8642;SDS011;4359;49.358;11.256;2022-07-29T03:58:10;7.07;;;2.10;;
8642;SDS011;4359;49.358;11.256;2022-07-29T04:00:37;5.53;;;2.35;;
8642;SDS011;4359;49.358;11.256;2022-07-29T04:03:03;5.38;;;2.33;;
8642;SDS011;4359;49.358;11.256;2022-07-29T04:05:30;6.45;;;2.05;;
8642;SDS011;4359;49.358;11.256;2022-07-29T04:07:55;5.75;;;2.17;;
8642;SDS011;4359;49.358;11.256;2022-07-29T04:10:21;6.72;;;2.05;;
8642;SDS011;4359;49.358;11.256;2022-07-29T04:12:48;6.15;;;1.98;;
8642;SDS011;4359;49.358;11.256;2022-07-29T04:15:14;8.13;;;2.45;;
8642;SDS011;4359;49.358;11.256;2022-07-29T04:17:39;7.35;;;2.20;;
8642;SDS011;4359;49.358;11.256;2022-07-29T04:20:05;5.55;;;2.38;;
8642;SDS011;4359;49.358;11.256;2022-07-29T04:22:31;8.35;;;2.20;;
8642;SDS011;4359;49.358;11.256;2022-07-29T04:24:57;6.72;;;2.47;;
8642;SDS011;4359;49.358;11.256;2022-07-29T04:27:22;8.25;;;2.28;;
8642;SDS011;4359;49.358;11.256;2022-07-29T04:29:48;5.18;;;2.58;;
8642;SDS011;4359;49.358;11.256;2022-07-29T04:32:14;5.25;;;2.20;;
8642;SDS011;4359;49.358;11.256;2022-07-29T04:34:39;6.90;;;3.10;;
8642;SDS011;4359;49.358;11.256;2022-07-29T04:37:05;9.13;;;2.78;;
8642;SDS011;4359;49.358;11.256;2022-07-29T04:39:30;5.93;;;2.20;;
8642;SDS011;4359;49.358;11.256;2022-07-29T04:41:56;4.30;;;2.20;;
8642;SDS011;4359;49.358;11.256;2022-07-29T04:44:22;4.22;;;2.05;;
8642;SDS011;4359;49.358;11.256;2022-07-29T04:46:47;6.40;;;2.33;;
8642;SDS011;4359;49.358;11.256;2022-07-29T04:49:13;4.63;;;2.05;;
8642;SDS011;4359;49.358;11.256;2022-07-29T04:51:39;9.88;;;2.35;;
8642;SDS011;4359;49.358;11.256;2022-07-29T04:54:04;4.78;;;2.40;;
8642;SDS011;4359;49.358;11.256;2022-07-29T04:56:31;5.20;;;2.30;;
8642;SDS011;4359;49.358;11.256;2022-07-29T04:58:57;7.10;;;2.50;;
8642;SDS011;4359;49.358;11.256;2022-07-29T05:01:22;5.20;;;2.20;;
8642;SDS011;4359;49.358;11.256;2022-07-29T05:03:48;3.63;;;2.10;;
8642;SDS011;4359;49.358;11.256;2022-07-29T05:06:14;9.77;;;2.90;;
8642;SDS011;4359;49.358;11.256;2022-07-29T05:08:39;4.25;;;2.22;;
8642;SDS011;4359;49.358;11.256;2022-07-29T05:11:05;6.53;;;2.10;;
8642;SDS011;4359;49.358;11.256;2022-07-29T05:13:31;3.60;;;2.10;;
8642;SDS011;4359;49.358;11.256;2022-07-29T05:15:56;4.45;;;2.20;;
8642;SDS011;4359;49.358;11.256;2022-07-29T05:18:23;7.10;;;2.45;;
8642;SDS011;4359;49.358;11.256;2022-07-29T05:20:53;5.15;;;2.17;;
8642;SDS011;4359;49.358;11.256;2022-07-29T05:23:19;7.53;;;2.20;;
8642;SDS011;4359;49.358;11.256;2022-07-29T05:25:44;4.25;;;2.28;;
8642;SDS011;4359;49.358;11.256;2022-07-29T05:28:11;5.45;;;2.13;;
8642;SDS011;4359;49.358;11.256;2022-07-29T05:30:37;7.38;;;2.10;;
8642;SDS011;4359;49.358;11.256;2022-07-29T05:33:03;5.63;;;2.50;;
8642;SDS011;4359;49.358;11.256;2022-07-29T05:35:28;5.43;;;2.58;;
8642;SDS011;4359;49.358;11.256;2022-07-29T05:37:54;4.68;;;2.35;;
8642;SDS011;4359;49.358;11.256;2022-07-29T05:40:20;6.13;;;2.38;;
8642;SDS011;4359;49.358;11.256;2022-07-29T05:42:45;6.32;;;2.97;;
8642;SDS011;4359;49.358;11.256;2022-07-29T05:45:11;5.00;;;2.53;;
8642;SDS011;4359;49.358;11.256;2022-07-29T05:47:37;8.30;;;2.58;;
8642;SDS011;4359;49.358;11.256;2022-07-29T05:50:02;6.45;;;2.63;;
8642;SDS011;4359;49.358;11.256;2022-07-29T05:52:29;6.68;;;2.40;;
8642;SDS011;4359;49.358;11.256;2022-07-29T05:54:54;5.35;;;2.10;;
8642;SDS011;4359;49.358;11.256;2022-07-29T05:57:22;5.53;;;2.20;;
8642;SDS011;4359;49.358;11.256;2022-07-29T05:59:49;7.10;;;2.70;;
8642;SDS011;4359;49.358;11.256;2022-07-29T06:02:15;5.00;;;2.38;;
8642;SDS011;4359;49.358;11.256;2022-07-29T06:04:42;5.45;;;2.38;;
8642;SDS011;4359;49.358;11.256;2022-07-29T06:07:07;9.15;;;2.28;;
8642;SDS011;4359;49.358;11.256;2022-07-29T06:09:33;10.80;;;3.03;;
8642;SDS011;4359;49.358;11.256;2022-07-29T06:11:59;7.25;;;2.85;;
8642;SDS011;4359;49.358;11.256;2022-07-29T06:14:25;11.40;;;2.33;;
8642;SDS011;4359;49.358;11.256;2022-07-29T06:16:54;7.70;;;2.72;;
8642;SDS011;4359;49.358;11.256;2022-07-29T06:19:20;6.38;;;2.33;;
8642;SDS011;4359;49.358;11.256;2022-07-29T06:21:46;6.45;;;2.13;;
8642;SDS011;4359;49.358;11.256;2022-07-29T06:24:12;8.15;;;2.30;;
8642;SDS011;4359;49.358;11.256;2022-07-29T06:26:39;9.18;;;2.85;;
8642;SDS011;4359;49.358;11.256;2022-07-29T06:29:05;9.35;;;2.38;;
8642;SDS011;4359;49.358;11.256;2022-07-29T06:31:31;11.52;;;2.75;;
8642;SDS011;4359;49.358;11.256;2022-07-29T06:33:57;9.90;;;2.55;;
8642;SDS011;4359;49.358;11.256;2022-07-29T06:36:23;7.07;;;2.40;;
8642;SDS011;4359;49.358;11.256;2022-07-29T06:38:48;5.72;;;2.10;;
8642;SDS011;4359;49.358;11.256;2022-07-29T06:41:14;6.78;;;2.60;;
8642;SDS011;4359;49.358;11.256;2022-07-29T06:43:41;8.10;;;2.50;;
8642;SDS011;4359;49.358;11.256;2022-07-29T06:46:09;8.27;;;2.70;;
8642;SDS011;4359;49.358;11.256;2022-07-29T06:48:37;9.40;;;2.53;;
8642;SDS011;4359;49.358;11.256;2022-07-29T06:51:05;7.55;;;2.15;;
8642;SDS011;4359;49.358;11.256;2022-07-29T06:53:31;7.22;;;2.35;;
8642;SDS011;4359;49.358;11.256;2022-07-29T06:55:59;6.63;;;2.35;;
8642;SDS011;4359;49.358;11.256;2022-07-29T06:58:26;10.98;;;2.42;;
8642;SDS011;4359;49.358;11.256;2022-07-29T07:00:52;11.85;;;2.88;;
8642;SDS011;4359;49.358;11.256;2022-07-29T07:03:19;9.07;;;2.70;;
8642;SDS011;4359;49.358;11.256;2022-07-29T07:05:45;6.30;;;2.45;;
8642;SDS011;4359;49.358;11.256;2022-07-29T07:08:11;7.80;;;2.60;;
8642;SDS011;4359;49.358;11.256;2022-07-29T07:10:37;5.95;;;2.40;;
8642;SDS011;4359;49.358;11.256;2022-07-29T07:13:03;7.32;;;2.30;;
8642;SDS011;4359;49.358;11.256;2022-07-29T07:15:30;8.00;;;2.35;;
8642;SDS011;4359;49.358;11.256;2022-07-29T07:17:56;4.55;;;2.35;;
8642;SDS011;4359;49.358;11.256;2022-07-29T07:20:22;6.60;;;2.15;;
8642;SDS011;4359;49.358;11.256;2022-07-29T07:22:49;4.13;;;2.20;;
8642;SDS011;4359;49.358;11.256;2022-07-29T07:25:14;8.60;;;2.67;;
8642;SDS011;4359;49.358;11.256;2022-07-29T07:27:42;6.82;;;2.30;;
8642;SDS011;4359;49.358;11.256;2022-07-29T07:30:08;5.88;;;2.47;;
8642;SDS011;4359;49.358;11.256;2022-07-29T07:32:35;6.18;;;2.00;;
8642;SDS011;4359;49.358;11.256;2022-07-29T07:35:01;4.45;;;2.10;;
8642;SDS011;4359;49.358;11.256;2022-07-29T07:37:27;4.78;;;2.08;;
8642;SDS011;4359;49.358;11.256;2022-07-29T07:39:52;5.78;;;2.65;;
8642;SDS011;4359;49.358;11.256;2022-07-29T07:42:18;6.75;;;2.10;;
8642;SDS011;4359;49.358;11.256;2022-07-29T07:44:45;4.32;;;2.10;;
8642;SDS011;4359;49.358;11.256;2022-07-29T07:47:11;8.02;;;2.35;;
8642;SDS011;4359;49.358;11.256;2022-07-29T07:49:37;9.73;;;2.15;;
8642;SDS011;4359;49.358;11.256;2022-07-29T07:52:03;7.20;;;2.40;;
8642;SDS011;4359;49.358;11.256;2022-07-29T07:54:29;8.77;;;2.58;;
8642;SDS011;4359;49.358;11.256;2022-07-29T07:56:55;7.50;;;2.20;;
8642;SDS011;4359;49.358;11.256;2022-07-29T07:59:21;8.43;;;2.58;;
8642;SDS011;4359;49.358;11.256;2022-07-29T08:01:47;6.07;;;2.25;;
8642;SDS011;4359;49.358;11.256;2022-07-29T08:04:14;4.18;;;2.38;;
8642;SDS011;4359;49.358;11.256;2022-07-29T08:06:40;6.93;;;2.00;;
8642;SDS011;4359;49.358;11.256;2022-07-29T08:09:05;6.38;;;2.10;;
8642;SDS011;4359;49.358;11.256;2022-07-29T08:11:31;4.68;;;2.10;;
8642;SDS011;4359;49.358;11.256;2022-07-29T08:13:57;6.03;;;2.00;;
8642;SDS011;4359;49.358;11.256;2022-07-29T08:16:23;4.68;;;2.28;;
8642;SDS011;4359;49.358;11.256;2022-07-29T08:18:50;5.53;;;2.47;;
8642;SDS011;4359;49.358;11.256;2022-07-29T08:21:16;5.90;;;2.05;;
8642;SDS011;4359;49.358;11.256;2022-07-29T08:23:45;5.88;;;2.00;;
8642;SDS011;4359;49.358;11.256;2022-07-29T08:26:14;4.78;;;1.95;;
8642;SDS011;4359;49.358;11.256;2022-07-29T08:28:41;6.38;;;2.67;;
8642;SDS011;4359;49.358;11.256;2022-07-29T08:31:11;11.98;;;2.53;;
8642;SDS011;4359;49.358;11.256;2022-07-29T08:33:37;6.57;;;2.20;;
8642;SDS011;4359;49.358;11.256;2022-07-29T08:36:04;4.47;;;2.30;;
8642;SDS011;4359;49.358;11.256;2022-07-29T08:38:31;11.85;;;2.47;;
8642;SDS011;4359;49.358;11.256;2022-07-29T08:40:56;5.90;;;2.17;;
8642;SDS011;4359;49.358;11.256;2022-07-29T08:43:24;11.48;;;2.97;;
8642;SDS011;4359;49.358;11.256;2022-07-29T08:45:51;6.00;;;2.30;;
8642;SDS011;4359;49.358;11.256;2022-07-29T08:48:21;4.97;;;2.50;;
8642;SDS011;4359;49.358;11.256;2022-07-29T08:50:54;10.30;;;2.63;;
8642;SDS011;4359;49.358;11.256;2022-07-29T08:53:21;7.97;;;2.40;;
8642;SDS011;4359;49.358;11.256;2022-07-29T08:55:51;4.57;;;2.38;;
8642;SDS011;4359;49.358;11.256;2022-07-29T08:58:17;6.78;;;2.35;;
8642;SDS011;4359;49.358;11.256;2022-07-29T09:00:51;4.93;;;2.25;;
8642;SDS011;4359;49.358;11.256;2022-07-29T09:03:22;7.97;;;2.75;;
8642;SDS011;4359;49.358;11.256;2022-07-29T09:05:49;8.20;;;2.90;;
8642;SDS011;4359;49.358;11.256;2022-07-29T09:08:16;6.13;;;2.50;;
8642;SDS011;4359;49.358;11.256;2022-07-29T09:10:42;5.28;;;2.50;;
8642;SDS011;4359;49.358;11.256;2022-07-29T09:13:09;7.30;;;2.40;;
8642;SDS011;4359;49.358;11.256;2022-07-29T09:15:35;7.45;;;2.70;;
8642;SDS011;4359;49.358;11.256;2022-07-29T09:18:01;9.18;;;2.65;;
8642;SDS011;4359;49.358;11.256;2022-07-29T09:20:27;11.48;;;3.30;;
8642;SDS011;4359;49.358;11.256;2022-07-29T09:23:12;14.68;;;3.17;;
8642;SDS011;4359;49.358;11.256;2022-07-29T09:25:39;6.28;;;2.90;;
8642;SDS011;4359;49.358;11.256;2022-07-29T09:28:16;6.07;;;2.55;;
8642;SDS011;4359;49.358;11.256;2022-07-29T09:30:55;6.32;;;2.72;;
8642;SDS011;4359;49.358;11.256;2022-07-29T09:33:23;4.72;;;2.50;;
8642;SDS011;4359;49.358;11.256;2022-07-29T09:36:13;7.35;;;2.85;;
8642;SDS011;4359;49.358;11.256;2022-07-29T09:38:39;7.03;;;2.60;;
8642;SDS011;4359;49.358;11.256;2022-07-29T09:41:05;5.53;;;2.65;;
8642;SDS011;4359;49.358;11.256;2022-07-29T09:43:32;4.95;;;2.60;;
8642;SDS011;4359;49.358;11.256;2022-07-29T09:46:11;5.32;;;2.50;;
8642;SDS011;4359;49.358;11.256;2022-07-29T09:48:38;7.53;;;2.80;;
8642;SDS011;4359;49.358;11.256;2022-07-29T09:51:03;4.75;;;2.42;;
8642;SDS011;4359;49.358;11.256;2022-07-29T09:53:34;5.95;;;3.08;;
8642;SDS011;4359;49.358;11.256;2022-07-29T09:56:02;4.70;;;2.90;;
8642;SDS011;4359;49.358;11.256;2022-07-29T09:58:28;5.68;;;3.28;;
8642;SDS011;4359;49.358;11.256;2022-07-29T10:00:54;5.70;;;3.00;;
8642;SDS011;4359;49.358;11.256;2022-07-29T10:03:21;5.63;;;2.72;;
8642;SDS011;4359;49.358;11.256;2022-07-29T10:06:03;8.77;;;2.97;;
8642;SDS011;4359;49.358;11.256;2022-07-29T10:08:38;11.50;;;3.25;;
8642;SDS011;4359;49.358;11.256;2022-07-29T10:13:36;7.18;;;3.33;;
8642;SDS011;4359;49.358;11.256;2022-07-29T10:16:03;6.00;;;2.75;;
8642;SDS011;4359;49.358;11.256;2022-07-29T10:18:29;9.48;;;2.65;;
8642;SDS011;4359;49.358;11.256;2022-07-29T10:20:55;10.75;;;2.67;;
8642;SDS011;4359;49.358;11.256;2022-07-29T10:23:21;6.20;;;2.90;;
8642;SDS011;4359;49.358;11.256;2022-07-29T10:25:48;4.10;;;2.55;;
8642;SDS011;4359;49.358;11.256;2022-07-29T10:28:14;4.25;;;2.38;;
8642;SDS011;4359;49.358;11.256;2022-07-29T10:30:40;5.20;;;2.63;;
8642;SDS011;4359;49.358;11.256;2022-07-29T10:35:44;4.53;;;3.05;;
8642;SDS011;4359;49.358;11.256;2022-07-29T10:41:27;7.70;;;3.40;;
8642;SDS011;4359;49.358;11.256;2022-07-29T10:44:21;5.00;;;2.90;;
8642;SDS011;4359;49.358;11.256;2022-07-29T10:46:48;5.45;;;2.88;;
8642;SDS011;4359;49.358;11.256;2022-07-29T10:49:16;9.30;;;3.00;;
8642;SDS011;4359;49.358;11.256;2022-07-29T11:07:25;5.05;;;2.90;;
8642;SDS011;4359;49.358;11.256;2022-07-29T11:29:00;5.20;;;3.05;;
8642;SDS011;4359;49.358;11.256;2022-07-29T11:39:32;8.73;;;3.57;;
8642;SDS011;4359;49.358;11.256;2022-07-29T11:47:50;6.72;;;3.20;;
8642;SDS011;4359;49.358;11.256;2022-07-29T11:50:39;8.13;;;3.22;;
8642;SDS011;4359;49.358;11.256;2022-07-29T11:53:11;6.85;;;3.65;;
8642;SDS011;4359;49.358;11.256;2022-07-29T11:55:38;6.38;;;2.80;;
8642;SDS011;4359;49.358;11.256;2022-07-29T11:58:04;9.93;;;3.40;;
8642;SDS011;4359;49.358;11.256;2022-07-29T12:00:32;10.95;;;3.72;;
8642;SDS011;4359;49.358;11.256;2022-07-29T12:02:58;6.55;;;3.42;;
8642;SDS011;4359;49.358;11.256;2022-07-29T12:05:33;6.53;;;3.20;;
8642;SDS011;4359;49.358;11.256;2022-07-29T12:08:13;19.42;;;4.03;;
8642;SDS011;4359;49.358;11.256;2022-07-29T12:10:43;8.93;;;3.60;;
8642;SDS011;4359;49.358;11.256;2022-07-29T12:13:10;7.18;;;3.28;;
8642;SDS011;4359;49.358;11.256;2022-07-29T12:15:37;8.02;;;3.25;;
8642;SDS011;4359;49.358;11.256;2022-07-29T12:18:13;7.68;;;3.05;;
8642;SDS011;4359;49.358;11.256;2022-07-29T12:20:41;11.40;;;2.70;;
8642;SDS011;4359;49.358;11.256;2022-07-29T12:23:08;5.32;;;2.60;;
8642;SDS011;4359;49.358;11.256;2022-07-29T12:25:34;5.25;;;2.78;;
8642;SDS011;4359;49.358;11.256;2022-07-29T12:28:06;5.32;;;2.80;;
8642;SDS011;4359;49.358;11.256;2022-07-29T12:30:34;4.82;;;2.60;;
8642;SDS011;4359;49.358;11.256;2022-07-29T12:33:21;7.90;;;3.38;;
8642;SDS011;4359;49.358;11.256;2022-07-29T12:35:59;4.22;;;2.60;;
8642;SDS011;4359;49.358;11.256;2022-07-29T12:38:26;4.85;;;3.08;;
8642;SDS011;4359;49.358;11.256;2022-07-29T12:40:52;5.72;;;2.85;;
8642;SDS011;4359;49.358;11.256;2022-07-29T12:43:22;6.18;;;2.80;;
8642;SDS011;4359;49.358;11.256;2022-07-29T12:45:51;6.78;;;2.60;;
8642;SDS011;4359;49.358;11.256;2022-07-29T12:48:32;4.32;;;2.50;;
8642;SDS011;4359;49.358;11.256;2022-07-29T12:51:03;3.90;;;2.60;;
8642;SDS011;4359;49.358;11.256;2022-07-29T12:53:31;5.75;;;2.90;;
8642;SDS011;4359;49.358;11.256;2022-07-29T12:55:57;7.47;;;2.40;;
8642;SDS011;4359;49.358;11.256;2022-07-29T12:58:36;5.97;;;2.20;;
8642;SDS011;4359;49.358;11.256;2022-07-29T13:09:05;7.70;;;2.00;;
8642;SDS011;4359;49.358;11.256;2022-07-29T13:11:38;8.80;;;2.08;;
8642;SDS011;4359;49.358;11.256;2022-07-29T13:14:06;12.30;;;2.97;;
8642;SDS011;4359;49.358;11.256;2022-07-29T13:16:34;11.50;;;3.00;;
8642;SDS011;4359;49.358;11.256;2022-07-29T13:19:18;18.58;;;3.72;;
8642;SDS011;4359;49.358;11.256;2022-07-29T13:21:44;12.88;;;4.05;;
8642;SDS011;4359;49.358;11.256;2022-07-29T13:24:10;19.85;;;4.55;;
8642;SDS011;4359;49.358;11.256;2022-07-29T13:26:39;21.27;;;5.35;;
8642;SDS011;4359;49.358;11.256;2022-07-29T13:29:05;14.82;;;3.67;;
8642;SDS011;4359;49.358;11.256;2022-07-29T13:31:31;13.57;;;4.13;;
8642;SDS011;4359;49.358;11.256;2022-07-29T13:33:57;10.55;;;3.90;;
8642;SDS011;4359;49.358;11.256;2022-07-29T13:36:22;14.07;;;4.18;;
8642;SDS011;4359;49.358;11.256;2022-07-29T13:38:48;9.10;;;4.55;;
8642;SDS011;4359;49.358;11.256;2022-07-29T13:41:14;12.68;;;4.13;;
8642;SDS011;4359;49.358;11.256;2022-07-29T13:43:39;9.20;;;4.30;;
8642;SDS011;4359;49.358;11.256;2022-07-29T13:46:05;8.70;;;4.28;;
8642;SDS011;4359;49.358;11.256;2022-07-29T13:48:31;10.43;;;4.05;;
8642;SDS011;4359;49.358;11.256;2022-07-29T13:50:56;9.52;;;4.20;;
8642;SDS011;4359;49.358;11.256;2022-07-29T13:53:22;8.43;;;4.03;;
8642;SDS011;4359;49.358;11.256;2022-07-29T13:55:47;8.63;;;4.00;;
8642;SDS011;4359;49.358;11.256;2022-07-29T13:58:13;9.15;;;5.25;;
8642;SDS011;4359;49.358;11.256;2022-07-29T14:00:39;10.75;;;4.00;;
8642;SDS011;4359;49.358;11.256;2022-07-29T14:03:04;10.82;;;4.20;;
8642;SDS011;4359;49.358;11.256;2022-07-29T14:05:31;9.90;;;4.30;;
8642;SDS011;4359;49.358;11.256;2022-07-29T14:07:57;12.10;;;4.45;;
8642;SDS011;4359;49.358;11.256;2022-07-29T14:10:22;6.97;;;3.80;;
8642;SDS011;4359;49.358;11.256;2022-07-29T14:12:48;9.88;;;4.10;;
8642;SDS011;4359;49.358;11.256;2022-07-29T14:15:13;6.20;;;3.67;;
8642;SDS011;4359;49.358;11.256;2022-07-29T14:17:39;11.00;;;4.35;;
8642;SDS011;4359;49.358;11.256;2022-07-29T14:20:05;6.03;;;3.53;;
8642;SDS011;4359;49.358;11.256;2022-07-29T14:22:31;8.00;;;3.30;;
8642;SDS011;4359;49.358;11.256;2022-07-29T14:24:58;8.55;;;3.28;;
8642;SDS011;4359;49.358;11.256;2022-07-29T14:27:24;5.35;;;2.95;;
8642;SDS011;4359;49.358;11.256;2022-07-29T14:29:49;6.15;;;2.88;;
8642;SDS011;4359;49.358;11.256;2022-07-29T14:32:15;6.40;;;2.97;;
8642;SDS011;4359;49.358;11.256;2022-07-29T14:34:40;8.57;;;2.90;;
8642;SDS011;4359;49.358;11.256;2022-07-29T14:37:06;6.53;;;2.42;;
8642;SDS011;4359;49.358;11.256;2022-07-29T14:39:33;8.50;;;2.40;;
8642;SDS011;4359;49.358;11.256;2022-07-29T14:42:00;8.43;;;3.30;;
8642;SDS011;4359;49.358;11.256;2022-07-29T14:44:26;7.25;;;2.45;;
8642;SDS011;4359;49.358;11.256;2022-07-29T14:46:56;9.27;;;3.03;;
8642;SDS011;4359;49.358;11.256;2022-07-29T14:49:25;8.40;;;3.00;;
8642;SDS011;4359;49.358;11.256;2022-07-29T14:51:51;7.72;;;2.90;;
8642;SDS011;4359;49.358;11.256;2022-07-29T14:54:17;5.35;;;2.60;;
8642;SDS011;4359;49.358;11.256;2022-07-29T14:56:43;6.40;;;2.65;;
8642;SDS011;4359;49.358;11.256;2022-07-29T14:59:09;4.18;;;2.60;;
8642;SDS011;4359;49.358;11.256;2022-07-29T15:01:34;5.18;;;2.78;;
8642;SDS011;4359;49.358;11.256;2022-07-29T15:04:00;5.55;;;2.60;;
8642;SDS011;4359;49.358;11.256;2022-07-29T15:06:26;5.43;;;2.60;;
8642;SDS011;4359;49.358;11.256;2022-07-29T15:08:52;8.35;;;3.45;;
8642;SDS011;4359;49.358;11.256;2022-07-29T15:11:17;6.40;;;2.42;;
8642;SDS011;4359;49.358;11.256;2022-07-29T15:13:43;3.38;;;2.10;;
8642;SDS011;4359;49.358;11.256;2022-07-29T15:16:08;4.32;;;2.63;;
8642;SDS011;4359;49.358;11.256;2022-07-29T15:18:35;4.53;;;2.28;;
8642;SDS011;4359;49.358;11.256;2022-07-29T15:21:02;3.50;;;1.95;;
8642;SDS011;4359;49.358;11.256;2022-07-29T15:23:28;4.65;;;1.98;;
8642;SDS011;4359;49.358;11.256;2022-07-29T15:25:54;3.45;;;1.63;;
8642;SDS011;4359;49.358;11.256;2022-07-29T15:28:19;3.50;;;1.83;;
8642;SDS011;4359;49.358;11.256;2022-07-29T15:30:45;2.60;;;1.60;;
8642;SDS011;4359;49.358;11.256;2022-07-29T15:33:10;3.22;;;1.70;;
8642;SDS011;4359;49.358;11.256;2022-07-29T15:35:36;5.03;;;2.15;;
8642;SDS011;4359;49.358;11.256;2022-07-29T15:38:02;2.28;;;1.75;;
8642;SDS011;4359;49.358;11.256;2022-07-29T15:40:28;3.40;;;1.90;;
8642;SDS011;4359;49.358;11.256;2022-07-29T15:42:54;2.97;;;1.60;;
8642;SDS011;4359;49.358;11.256;2022-07-29T15:45:20;5.28;;;2.38;;
8642;SDS011;4359;49.358;11.256;2022-07-29T15:47:45;3.15;;;2.05;;
8642;SDS011;4359;49.358;11.256;2022-07-29T15:50:11;4.35;;;2.30;;
8642;SDS011;4359;49.358;11.256;2022-07-29T15:52:41;3.47;;;2.20;;
8642;SDS011;4359;49.358;11.256;2022-07-29T15:55:07;5.40;;;2.67;;
8642;SDS011;4359;49.358;11.256;2022-07-29T15:57:33;5.28;;;2.42;;
8642;SDS011;4359;49.358;11.256;2022-07-29T15:59:59;3.45;;;2.10;;
8642;SDS011;4359;49.358;11.256;2022-07-29T16:02:24;7.13;;;3.10;;
8642;SDS011;4359;49.358;11.256;2022-07-29T16:04:50;7.40;;;3.30;;
8642;SDS011;4359;49.358;11.256;2022-07-29T16:07:16;8.90;;;4.07;;
8642;SDS011;4359;49.358;11.256;2022-07-29T16:09:42;7.40;;;3.90;;
8642;SDS011;4359;49.358;11.256;2022-07-29T16:12:08;8.15;;;4.20;;
8642;SDS011;4359;49.358;11.256;2022-07-29T16:14:34;7.72;;;4.82;;
8642;SDS011;4359;49.358;11.256;2022-07-29T16:16:59;8.15;;;5.30;;
8642;SDS011;4359;49.358;11.256;2022-07-29T16:19:27;7.55;;;4.78;;